Time;durP1;ratioP1;P1;durP2;ratioP2;P2;SDS_P1;SDS_P2;PMS_P1;PMS_P2;Temp;Humidity;BMP_temperature;BMP_pressure;BME280_temperature;BME280_humidity;BME280_pressure;Samples;Min_cycle;Max_cycle;Signal;HPM_P1;HPM_P2
2024/01/24 00:01:56;;;;;;;12.45;7.38;;;;;;;;;;10354816;28;20088;-56
2024/01/24 00:06:57;;;;;;;14.02;8.07;;;;;;;;;;10338283;28;20488;-57
2024/01/24 00:11:58;;;;;;;10.45;6.82;;;;;;;;;;10319627;28;20104;-50
2024/01/24 00:16:59;;;;;;;14.65;7.65;;;;;;;;;;10326634;28;20046;-47
2024/01/24 00:21:59;;;;;;;8.95;6.35;;;;;;;;;;10346212;28;20029;-50
2024/01/24 00:27:00;;;;;;;9.70;6.47;;;;;;;;;;10340789;28;20034;-49
2024/01/24 00:32:01;;;;;;;10.10;7.05;;;;;;;;;;10287675;28;20026;-51
2024/01/24 00:37:02;;;;;;;9.30;6.50;;;;;;;;;;10323064;28;20050;-49
2024/01/24 00:42:03;;;;;;;11.57;6.43;;;;;;;;;;10324208;28;20030;-50
2024/01/24 00:47:04;;;;;;;10.55;7.13;;;;;;;;;;10224517;28;20045;-48
2024/01/24 00:52:05;;;;;;;14.50;6.65;;;;;;;;;;10250970;28;20026;-50
2024/01/24 00:57:05;;;;;;;12.77;7.00;;;;;;;;;;10344372;28;20022;-49
2024/01/24 01:02:06;;;;;;;11.02;6.18;;;;;;;;;;10319285;28;20499;-50
2024/01/24 01:07:06;;;;;;;11.23;6.55;;;;;;;;;;10298130;28;20057;-51
2024/01/24 01:12:07;;;;;;;13.65;6.97;;;;;;;;;;10329871;28;20026;-51
2024/01/24 01:17:08;;;;;;;9.13;5.95;;;;;;;;;;10337209;28;20040;-51
2024/01/24 01:22:08;;;;;;;11.20;6.78;;;;;;;;;;10337481;28;20327;-50
2024/01/24 01:27:09;;;;;;;11.10;6.53;;;;;;;;;;10327963;28;20053;-49
2024/01/24 01:32:09;;;;;;;10.02;5.97;;;;;;;;;;10343091;28;20042;-50
2024/01/24 01:37:10;;;;;;;9.88;6.05;;;;;;;;;;10307472;28;20039;-48
2024/01/24 01:42:10;;;;;;;8.35;5.50;;;;;;;;;;10238960;28;20234;-51
2024/01/24 01:47:13;;;;;;;8.45;5.97;;;;;;;;;;10238686;28;20025;-50
2024/01/24 01:52:16;;;;;;;10.45;6.10;;;;;;;;;;10245931;28;20116;-53
2024/01/24 01:57:17;;;;;;;8.40;5.38;;;;;;;;;;10233757;28;20470;-49
2024/01/24 02:02:18;;;;;;;8.18;5.68;;;;;;;;;;10238431;28;20038;-50
2024/01/24 02:07:19;;;;;;;11.05;6.00;;;;;;;;;;10247776;28;20113;-50
2024/01/24 02:12:19;;;;;;;8.75;5.60;;;;;;;;;;10329326;28;20474;-49
2024/01/24 02:17:20;;;;;;;11.80;5.40;;;;;;;;;;10271215;28;20030;-48
2024/01/24 02:22:21;;;;;;;8.38;5.50;;;;;;;;;;10222085;28;20371;-49
2024/01/24 02:27:22;;;;;;;9.00;5.30;;;;;;;;;;10221060;28;20437;-51
2024/01/24 02:32:23;;;;;;;9.38;5.15;;;;;;;;;;10220301;28;20080;-52
2024/01/24 02:37:23;;;;;;;8.77;5.68;;;;;;;;;;10266366;28;20116;-49
2024/01/24 02:42:24;;;;;;;8.55;5.97;;;;;;;;;;10343800;28;20038;-51
2024/01/24 02:47:25;;;;;;;8.20;5.65;;;;;;;;;;10317234;28;20026;-51
2024/01/24 02:52:26;;;;;;;7.88;5.50;;;;;;;;;;10339902;28;20023;-50
2024/01/24 02:57:26;;;;;;;7.50;5.43;;;;;;;;;;10334770;28;20031;-50
2024/01/24 03:02:27;;;;;;;7.63;5.03;;;;;;;;;;10325964;28;20034;-52
2024/01/24 03:07:28;;;;;;;5.80;5.03;;;;;;;;;;10317727;28;20041;-54
2024/01/24 03:12:28;;;;;;;7.03;4.75;;;;;;;;;;10331927;28;20088;-51
2024/01/24 03:17:29;;;;;;;7.38;5.20;;;;;;;;;;10333189;28;20030;-50
2024/01/24 03:22:29;;;;;;;8.80;5.50;;;;;;;;;;10329398;28;20033;-53
2024/01/24 03:27:30;;;;;;;14.23;5.20;;;;;;;;;;10302857;28;20084;-50
2024/01/24 03:32:30;;;;;;;8.10;4.65;;;;;;;;;;10336170;28;20022;-50
2024/01/24 03:37:31;;;;;;;7.35;4.60;;;;;;;;;;10357287;28;20480;-47
2024/01/24 03:42:32;;;;;;;5.85;4.55;;;;;;;;;;10332379;28;20030;-47
2024/01/24 03:47:33;;;;;;;5.93;4.85;;;;;;;;;;10332510;28;20056;-48
2024/01/24 03:52:34;;;;;;;9.60;4.93;;;;;;;;;;10351196;28;20026;-46
2024/01/24 03:57:34;;;;;;;7.03;4.60;;;;;;;;;;10339380;28;20076;-47
2024/01/24 04:02:35;;;;;;;6.05;4.72;;;;;;;;;;10342611;28;20030;-48
2024/01/24 04:07:35;;;;;;;8.05;5.05;;;;;;;;;;10316659;28;20485;-48
2024/01/24 04:12:36;;;;;;;5.97;4.38;;;;;;;;;;10342998;28;20021;-46
2024/01/24 04:17:37;;;;;;;7.70;4.45;;;;;;;;;;10232473;28;20370;-48
2024/01/24 04:22:38;;;;;;;6.18;4.65;;;;;;;;;;10223549;28;20030;-47
2024/01/24 04:27:38;;;;;;;5.43;4.35;;;;;;;;;;10329253;28;20033;-51
2024/01/24 04:32:39;;;;;;;7.65;5.07;;;;;;;;;;10347662;28;20018;-50
2024/01/24 04:37:39;;;;;;;4.70;4.00;;;;;;;;;;10344678;28;20092;-51
2024/01/24 04:42:40;;;;;;;6.72;4.90;;;;;;;;;;10336240;28;20057;-50
2024/01/24 04:47:42;;;;;;;7.90;4.90;;;;;;;;;;10331344;28;20041;-51
2024/01/24 04:52:43;;;;;;;6.13;4.78;;;;;;;;;;10332635;28;20027;-52
2024/01/24 04:57:44;;;;;;;6.38;4.40;;;;;;;;;;10352480;28;20026;-52
2024/01/24 05:02:45;;;;;;;5.07;4.00;;;;;;;;;;10314089;28;20389;-52
2024/01/24 05:07:45;;;;;;;6.63;4.53;;;;;;;;;;10325966;28;20038;-52
2024/01/24 05:12:46;;;;;;;6.07;4.45;;;;;;;;;;10337071;28;20034;-50
2024/01/24 05:17:47;;;;;;;7.20;4.25;;;;;;;;;;10325484;28;20026;-50
2024/01/24 05:22:47;;;;;;;5.07;4.05;;;;;;;;;;10335542;28;20026;-49
2024/01/24 05:27:48;;;;;;;5.88;3.95;;;;;;;;;;10312586;28;20508;-48
2024/01/24 05:32:48;;;;;;;6.30;4.40;;;;;;;;;;10322447;28;20072;-50
2024/01/24 05:37:49;;;;;;;5.82;4.07;;;;;;;;;;10337413;28;20046;-48
2024/01/24 05:42:50;;;;;;;8.52;4.35;;;;;;;;;;10336447;28;20030;-50
2024/01/24 05:47:50;;;;;;;6.05;3.80;;;;;;;;;;10314047;28;20041;-52
2024/01/24 05:52:51;;;;;;;5.22;4.40;;;;;;;;;;10336370;28;21772;-52
2024/01/24 05:57:51;;;;;;;5.55;4.10;;;;;;;;;;10342820;28;20026;-51
2024/01/24 06:02:52;;;;;;;4.47;3.78;;;;;;;;;;10338634;28;20037;-50
2024/01/24 06:07:52;;;;;;;6.18;4.03;;;;;;;;;;10325412;28;20041;-52
2024/01/24 06:12:53;;;;;;;5.82;3.90;;;;;;;;;;10334778;28;20038;-50
2024/01/24 06:17:53;;;;;;;5.35;4.05;;;;;;;;;;10336077;28;20029;-51
2024/01/24 06:22:54;;;;;;;4.68;3.80;;;;;;;;;;10314703;28;20033;-51
2024/01/24 06:27:55;;;;;;;7.53;3.92;;;;;;;;;;10305593;28;20026;-58
2024/01/24 06:32:55;;;;;;;7.68;4.25;;;;;;;;;;10328444;28;20300;-50
2024/01/24 06:37:56;;;;;;;5.18;4.00;;;;;;;;;;10330204;28;20043;-51
2024/01/24 06:42:57;;;;;;;7.57;4.15;;;;;;;;;;10314987;28;21964;-52
2024/01/24 06:47:58;;;;;;;5.10;3.80;;;;;;;;;;10330056;28;20041;-48
2024/01/24 06:52:59;;;;;;;5.30;4.47;;;;;;;;;;10313177;28;20085;-52
2024/01/24 06:57:59;;;;;;;7.28;4.97;;;;;;;;;;10327161;28;20034;-52
2024/01/24 07:03:00;;;;;;;6.78;5.18;;;;;;;;;;10323777;28;20034;-51
2024/01/24 07:08:01;;;;;;;11.57;4.97;;;;;;;;;;10327751;28;20031;-49
2024/01/24 07:13:01;;;;;;;10.23;6.00;;;;;;;;;;10333251;28;20077;-51
2024/01/24 07:18:02;;;;;;;14.50;6.60;;;;;;;;;;10302810;28;20042;-48
2024/01/24 07:23:02;;;;;;;15.48;5.53;;;;;;;;;;10309906;28;20102;-50
2024/01/24 07:28:03;;;;;;;10.85;5.88;;;;;;;;;;10334588;28;20026;-49
2024/01/24 07:33:05;;;;;;;14.93;7.20;;;;;;;;;;10328262;28;20022;-50
2024/01/24 07:38:06;;;;;;;10.00;5.82;;;;;;;;;;10330879;28;20041;-46
2024/01/24 07:43:06;;;;;;;13.77;6.35;;;;;;;;;;10235679;28;20026;-51
2024/01/24 07:48:07;;;;;;;19.45;6.63;;;;;;;;;;10217561;28;20442;-53
2024/01/24 07:53:09;;;;;;;16.42;6.53;;;;;;;;;;10314239;28;20396;-51
2024/01/24 07:58:10;;;;;;;12.77;6.53;;;;;;;;;;10325670;28;20125;-51
2024/01/24 08:03:11;;;;;;;13.18;6.18;;;;;;;;;;10317702;28;20030;-50
2024/01/24 08:08:11;;;;;;;18.90;6.30;;;;;;;;;;10330248;28;20397;-50
2024/01/24 08:13:12;;;;;;;9.65;5.97;;;;;;;;;;10308992;28;20030;-57
2024/01/24 08:18:14;;;;;;;11.93;6.78;;;;;;;;;;10337877;28;20037;-50
2024/01/24 08:23:14;;;;;;;11.10;6.18;;;;;;;;;;10328741;28;20076;-51
2024/01/24 08:28:15;;;;;;;13.43;5.95;;;;;;;;;;10253472;28;20034;-50
2024/01/24 08:33:16;;;;;;;11.75;6.15;;;;;;;;;;10219641;28;20513;-46
2024/01/24 08:38:16;;;;;;;10.77;6.00;;;;;;;;;;10220265;28;20065;-50
2024/01/24 08:43:17;;;;;;;9.57;6.35;;;;;;;;;;10260292;28;20030;-51
2024/01/24 08:48:17;;;;;;;9.10;5.88;;;;;;;;;;10241829;28;20036;-47
2024/01/24 08:53:18;;;;;;;13.00;6.78;;;;;;;;;;10219502;28;20028;-50
2024/01/24 08:58:19;;;;;;;9.68;7.00;;;;;;;;;;10227498;28;20034;-53
2024/01/24 09:03:19;;;;;;;10.80;6.72;;;;;;;;;;10223860;28;20034;-51
2024/01/24 09:08:20;;;;;;;12.82;6.28;;;;;;;;;;10214511;28;20498;-51
2024/01/24 09:13:22;;;;;;;8.98;6.35;;;;;;;;;;10313944;28;20066;-50
2024/01/24 09:18:23;;;;;;;11.90;6.60;;;;;;;;;;10317289;28;20022;-49
2024/01/24 09:23:24;;;;;;;8.88;6.47;;;;;;;;;;10294552;28;20079;-47
2024/01/24 09:28:24;;;;;;;13.50;6.63;;;;;;;;;;10329898;28;20045;-56
2024/01/24 09:33:25;;;;;;;9.73;6.25;;;;;;;;;;10317126;28;20039;-55
2024/01/24 09:38:25;;;;;;;10.38;6.43;;;;;;;;;;10312234;28;20046;-54
2024/01/24 09:43:31;;;;;;;9.23;6.20;;;;;;;;;;10285263;28;21875;-50
2024/01/24 09:48:32;;;;;;;8.45;6.40;;;;;;;;;;10213760;28;20110;-49
2024/01/24 09:53:37;;;;;;;12.60;7.18;;;;;;;;;;10217131;28;20150;-57
2024/01/24 09:58:38;;;;;;;8.13;5.97;;;;;;;;;;10299620;28;20030;-51
2024/01/24 10:03:40;;;;;;;8.48;6.28;;;;;;;;;;10322639;28;20033;-51
2024/01/24 10:08:40;;;;;;;11.50;6.57;;;;;;;;;;10322511;28;20508;-51
2024/01/24 10:13:41;;;;;;;7.57;6.15;;;;;;;;;;10317881;28;20035;-57
2024/01/24 10:18:42;;;;;;;9.88;6.38;;;;;;;;;;10335026;28;20028;-50
2024/01/24 10:23:43;;;;;;;11.05;6.68;;;;;;;;;;10305167;28;20056;-51
2024/01/24 10:28:44;;;;;;;14.43;6.05;;;;;;;;;;10338046;28;20040;-53
2024/01/24 10:33:48;;;;;;;9.82;6.38;;;;;;;;;;10312586;28;20085;-52
2024/01/24 10:38:52;;;;;;;9.20;5.80;;;;;;;;;;10334378;28;20375;-50
2024/01/24 10:44:01;;;;;;;11.35;6.40;;;;;;;;;;10324927;28;20481;-56
2024/01/24 10:49:05;;;;;;;11.82;6.28;;;;;;;;;;10329492;28;20147;-58
2024/01/24 10:54:07;;;;;;;10.20;5.68;;;;;;;;;;10289226;28;20265;-53
2024/01/24 10:59:08;;;;;;;6.65;5.82;;;;;;;;;;10325720;28;20045;-58
2024/01/24 11:04:11;;;;;;;9.43;5.90;;;;;;;;;;10324435;28;20273;-49
2024/01/24 11:09:36;;;;;;;8.90;5.90;;;;;;;;;;10228652;28;22649;-50
2024/01/24 11:14:44;;;;;;;8.82;6.22;;;;;;;;;;10220898;28;20026;-51
2024/01/24 11:19:46;;;;;;;9.23;6.07;;;;;;;;;;10297649;28;20037;-51
2024/01/24 11:24:47;;;;;;;7.28;5.60;;;;;;;;;;10308263;28;20074;-51
2024/01/24 11:29:47;;;;;;;9.13;5.88;;;;;;;;;;10243352;28;20524;-51
2024/01/24 11:34:48;;;;;;;8.15;5.82;;;;;;;;;;10319800;28;20035;-54
2024/01/24 11:39:51;;;;;;;10.38;6.15;;;;;;;;;;10353195;23;20046;-59
2024/01/24 11:44:53;;;;;;;10.55;5.95;;;;;;;;;;10362832;28;20096;-61
2024/01/24 11:49:53;;;;;;;8.57;5.65;;;;;;;;;;10316765;28;20497;-60
2024/01/24 11:54:54;;;;;;;10.02;5.63;;;;;;;;;;10285545;28;20044;-60
2024/01/24 11:59:56;;;;;;;7.60;5.70;;;;;;;;;;10322654;28;20266;-60
2024/01/24 12:04:57;;;;;;;9.52;5.95;;;;;;;;;;10317402;28;20115;-60
2024/01/24 12:09:57;;;;;;;9.80;5.50;;;;;;;;;;10270593;28;20434;-60
2024/01/24 12:14:58;;;;;;;10.73;6.47;;;;;;;;;;10322956;28;20492;-60
2024/01/24 12:19:59;;;;;;;7.93;5.82;;;;;;;;;;10325721;28;20042;-60
2024/01/24 12:25:00;;;;;;;11.00;6.60;;;;;;;;;;10297202;28;20041;-59
2024/01/24 12:30:01;;;;;;;7.72;6.10;;;;;;;;;;10317341;28;20379;-60
2024/01/24 12:35:01;;;;;;;6.15;5.25;;;;;;;;;;10244109;28;20029;-59
2024/01/24 12:40:07;;;;;;;8.18;5.68;;;;;;;;;;10317381;28;20038;-60
2024/01/24 12:45:12;;;;;;;9.90;5.95;;;;;;;;;;10324092;28;20068;-58
2024/01/24 12:50:13;;;;;;;7.43;5.40;;;;;;;;;;10325430;28;20031;-58
2024/01/24 12:55:15;;;;;;;8.82;5.47;;;;;;;;;;10304586;28;20145;-58
2024/01/24 13:00:16;;;;;;;7.50;5.70;;;;;;;;;;10301982;28;20034;-60
2024/01/24 13:05:18;;;;;;;9.35;5.60;;;;;;;;;;10322088;28;20273;-59
2024/01/24 13:10:18;;;;;;;7.43;5.30;;;;;;;;;;10223737;28;20025;-59
2024/01/24 13:15:19;;;;;;;9.02;5.30;;;;;;;;;;10295819;28;20453;-60
2024/01/24 13:20:20;;;;;;;6.90;5.15;;;;;;;;;;10320216;28;20037;-59
2024/01/24 13:25:20;;;;;;;6.45;5.30;;;;;;;;;;10244349;28;20604;-60
2024/01/24 13:30:21;;;;;;;9.55;5.70;;;;;;;;;;10206529;28;20481;-59
2024/01/24 13:35:22;;;;;;;10.70;6.00;;;;;;;;;;10204466;28;20434;-59
2024/01/24 13:40:22;;;;;;;13.63;5.70;;;;;;;;;;10218131;28;21679;-59
2024/01/24 13:45:23;;;;;;;8.07;5.97;;;;;;;;;;10219408;28;20112;-59
2024/01/24 13:50:24;;;;;;;8.77;5.50;;;;;;;;;;10220362;28;20121;-58
2024/01/24 13:55:25;;;;;;;8.13;5.28;;;;;;;;;;10205217;28;22502;-59
2024/01/24 14:00:26;;;;;;;8.23;5.43;;;;;;;;;;10206937;28;20042;-58
2024/01/24 14:05:27;;;;;;;9.63;5.65;;;;;;;;;;10206665;28;20042;-59
2024/01/24 14:10:27;;;;;;;6.90;4.88;;;;;;;;;;10214412;28;20026;-59
2024/01/24 14:15:28;;;;;;;4.85;4.35;;;;;;;;;;10277230;28;20097;-59
2024/01/24 14:20:28;;;;;;;6.80;5.20;;;;;;;;;;10314099;28;20034;-59
2024/01/24 14:25:29;;;;;;;10.02;5.80;;;;;;;;;;10322893;28;20077;-60
2024/01/24 14:30:30;;;;;;;8.00;5.40;;;;;;;;;;10314336;28;20271;-59
2024/01/24 14:35:30;;;;;;;5.90;4.88;;;;;;;;;;10312594;28;20039;-59
2024/01/24 14:40:32;;;;;;;8.25;5.18;;;;;;;;;;10321682;28;20054;-59
2024/01/24 14:45:32;;;;;;;6.72;5.10;;;;;;;;;;10314187;28;20057;-59
2024/01/24 14:50:33;;;;;;;7.70;5.18;;;;;;;;;;10321550;28;21234;-59
2024/01/24 14:55:34;;;;;;;6.82;4.97;;;;;;;;;;10318772;28;20038;-59
2024/01/24 15:00:34;;;;;;;7.65;5.10;;;;;;;;;;10308241;28;20073;-59
2024/01/24 15:05:36;;;;;;;6.43;4.72;;;;;;;;;;10306545;28;20030;-59
2024/01/24 15:10:36;;;;;;;7.55;4.85;;;;;;;;;;10328962;28;20034;-59
2024/01/24 15:15:37;;;;;;;6.60;5.28;;;;;;;;;;10327145;28;20084;-58
2024/01/24 15:20:39;;;;;;;8.43;5.07;;;;;;;;;;10328397;28;20101;-59
2024/01/24 15:25:39;;;;;;;8.02;4.97;;;;;;;;;;10315619;28;20380;-59
2024/01/24 15:30:40;;;;;;;7.50;5.43;;;;;;;;;;10328115;28;20277;-59
2024/01/24 15:35:40;;;;;;;8.82;4.60;;;;;;;;;;10325514;28;20092;-59
2024/01/24 15:40:41;;;;;;;7.18;5.07;;;;;;;;;;10319287;28;20038;-60
2024/01/24 15:45:42;;;;;;;7.00;4.85;;;;;;;;;;10327755;28;20027;-58
2024/01/24 15:50:42;;;;;;;8.95;4.72;;;;;;;;;;10321712;28;20409;-59
2024/01/24 15:55:43;;;;;;;7.18;4.82;;;;;;;;;;10315773;28;20355;-59
2024/01/24 16:00:43;;;;;;;7.05;4.95;;;;;;;;;;10318336;28;20031;-58
2024/01/24 16:05:49;;;;;;;6.20;4.40;;;;;;;;;;10326634;28;20478;-58
2024/01/24 16:10:49;;;;;;;5.65;4.20;;;;;;;;;;10314551;28;20030;-58
2024/01/24 16:15:50;;;;;;;5.45;4.55;;;;;;;;;;10323221;28;20089;-59
2024/01/24 16:20:50;;;;;;;7.07;4.78;;;;;;;;;;10324369;28;20035;-58
2024/01/24 16:25:51;;;;;;;14.32;4.90;;;;;;;;;;10299206;28;20042;-58
2024/01/24 16:30:51;;;;;;;6.47;4.70;;;;;;;;;;10292521;28;20026;-59
2024/01/24 16:35:52;;;;;;;7.03;5.20;;;;;;;;;;10227616;28;20025;-58
2024/01/24 16:40:53;;;;;;;6.03;4.80;;;;;;;;;;10222554;28;20108;-59
2024/01/24 16:45:55;;;;;;;8.43;5.15;;;;;;;;;;10219382;28;21742;-59
2024/01/24 16:50:56;;;;;;;7.63;5.60;;;;;;;;;;10219208;28;20038;-59
2024/01/24 16:55:57;;;;;;;5.63;4.57;;;;;;;;;;10219467;28;20049;-58
2024/01/24 17:00:57;;;;;;;7.25;5.20;;;;;;;;;;10216530;28;20402;-59
2024/01/24 17:05:59;;;;;;;11.10;5.35;;;;;;;;;;10217708;28;20391;-59
2024/01/24 17:11:00;;;;;;;8.82;5.30;;;;;;;;;;10207150;28;20045;-58
2024/01/24 17:16:01;;;;;;;7.38;4.93;;;;;;;;;;10252975;28;20389;-59
2024/01/24 17:21:03;;;;;;;8.30;5.28;;;;;;;;;;10279319;28;20029;-58
2024/01/24 17:26:03;;;;;;;9.45;5.82;;;;;;;;;;10214419;28;20598;-59
2024/01/24 17:31:04;;;;;;;6.32;5.13;;;;;;;;;;10214267;28;20313;-59
2024/01/24 17:36:07;;;;;;;13.00;5.20;;;;;;;;;;10210217;28;20092;-59
2024/01/24 17:41:08;;;;;;;7.05;5.20;;;;;;;;;;10219204;28;20494;-59
2024/01/24 17:46:08;;;;;;;8.45;6.05;;;;;;;;;;10209262;28;20037;-58
2024/01/24 17:51:09;;;;;;;9.27;5.72;;;;;;;;;;10209798;28;20121;-59
2024/01/24 17:56:10;;;;;;;8.27;5.22;;;;;;;;;;10209751;28;20445;-58
2024/01/24 18:01:11;;;;;;;8.93;5.70;;;;;;;;;;10243898;28;20113;-58
2024/01/24 18:06:12;;;;;;;8.77;5.78;;;;;;;;;;10310757;28;20539;-59
2024/01/24 18:11:14;;;;;;;9.43;5.43;;;;;;;;;;10277356;28;20034;-59
2024/01/24 18:16:14;;;;;;;7.32;4.97;;;;;;;;;;10194776;28;20038;-59
2024/01/24 18:21:15;;;;;;;8.40;5.78;;;;;;;;;;10187771;28;20065;-58
2024/01/24 18:26:16;;;;;;;7.55;5.10;;;;;;;;;;10304101;28;20117;-58
2024/01/24 18:31:17;;;;;;;9.73;5.97;;;;;;;;;;10275497;28;20356;-59
2024/01/24 18:36:18;;;;;;;9.65;5.72;;;;;;;;;;10307963;28;20038;-60
2024/01/24 18:41:18;;;;;;;8.57;5.88;;;;;;;;;;10227772;28;21746;-60
2024/01/24 18:46:19;;;;;;;10.73;5.13;;;;;;;;;;10225290;28;20673;-60
2024/01/24 18:51:20;;;;;;;7.53;5.60;;;;;;;;;;10302294;28;20082;-60
2024/01/24 18:56:20;;;;;;;9.32;4.88;;;;;;;;;;10326716;28;20033;-59
2024/01/24 19:01:22;;;;;;;10.38;5.78;;;;;;;;;;10316073;28;20035;-59
2024/01/24 19:06:23;;;;;;;9.50;5.93;;;;;;;;;;10324044;28;20038;-60
2024/01/24 19:11:24;;;;;;;7.03;5.00;;;;;;;;;;10264322;28;20379;-60
2024/01/24 19:16:24;;;;;;;6.75;4.70;;;;;;;;;;10262563;28;20038;-60
2024/01/24 19:21:25;;;;;;;7.05;4.65;;;;;;;;;;10314263;28;20383;-59
2024/01/24 19:26:31;;;;;;;5.55;4.93;;;;;;;;;;10278468;28;20469;-59
2024/01/24 19:31:32;;;;;;;8.45;5.40;;;;;;;;;;10219611;28;22044;-60
2024/01/24 19:36:33;;;;;;;6.03;4.95;;;;;;;;;;10208041;28;20068;-60
2024/01/24 19:41:33;;;;;;;9.63;5.20;;;;;;;;;;10220495;28;20029;-60
2024/01/24 19:46:34;;;;;;;9.73;5.90;;;;;;;;;;10266685;28;20041;-59
2024/01/24 19:51:35;;;;;;;9.07;5.45;;;;;;;;;;10311096;28;20031;-61
2024/01/24 19:56:36;;;;;;;7.10;5.30;;;;;;;;;;10326587;28;20030;-60
2024/01/24 20:01:36;;;;;;;7.88;5.07;;;;;;;;;;10300231;28;20030;-60
2024/01/24 20:06:37;;;;;;;10.57;5.53;;;;;;;;;;10228113;28;20038;-60
2024/01/24 20:11:37;;;;;;;10.77;5.72;;;;;;;;;;10276544;28;20037;-59
2024/01/24 20:16:38;;;;;;;15.77;5.68;;;;;;;;;;10306020;28;20034;-60
2024/01/24 20:21:40;;;;;;;11.73;4.93;;;;;;;;;;10296644;28;20030;-59
2024/01/24 20:26:41;;;;;;;8.75;5.65;;;;;;;;;;10319381;28;20445;-60
2024/01/24 20:31:41;;;;;;;11.25;5.53;;;;;;;;;;10257983;28;20022;-59
2024/01/24 20:36:43;;;;;;;8.27;5.55;;;;;;;;;;10322086;28;20282;-60
2024/01/24 20:41:46;;;;;;;8.73;5.65;;;;;;;;;;10313858;28;20026;-59
2024/01/24 20:46:46;;;;;;;10.05;5.53;;;;;;;;;;10290555;28;20037;-60
2024/01/24 20:51:47;;;;;;;8.07;5.25;;;;;;;;;;10314131;28;20433;-60
2024/01/24 20:56:48;;;;;;;10.85;5.88;;;;;;;;;;10317837;28;20033;-59
2024/01/24 21:01:48;;;;;;;8.18;5.25;;;;;;;;;;10315621;28;20465;-59
2024/01/24 21:06:49;;;;;;;10.40;6.32;;;;;;;;;;10314331;28;20576;-59
2024/01/24 21:11:50;;;;;;;9.73;5.75;;;;;;;;;;10321975;28;20085;-59
2024/01/24 21:16:50;;;;;;;11.43;5.95;;;;;;;;;;10319134;28;20031;-59
2024/01/24 21:21:51;;;;;;;9.90;6.15;;;;;;;;;;10324769;28;20038;-59
2024/01/24 21:26:52;;;;;;;11.85;6.32;;;;;;;;;;10294987;28;20049;-59
2024/01/24 21:31:52;;;;;;;9.77;6.05;;;;;;;;;;10323713;28;20527;-59
2024/01/24 21:36:53;;;;;;;8.63;6.00;;;;;;;;;;10323713;28;20053;-59
2024/01/24 21:41:54;;;;;;;10.50;6.07;;;;;;;;;;10315209;28;20030;-59
2024/01/24 21:46:54;;;;;;;8.93;6.40;;;;;;;;;;10313677;28;20038;-59
2024/01/24 21:51:55;;;;;;;9.10;7.13;;;;;;;;;;10274884;28;20433;-60
2024/01/24 21:56:55;;;;;;;7.57;6.22;;;;;;;;;;10272045;28;20375;-60
2024/01/24 22:01:56;;;;;;;9.55;6.72;;;;;;;;;;10318959;28;20434;-60
2024/01/24 22:06:56;;;;;;;8.85;6.57;;;;;;;;;;10315430;28;20409;-60
2024/01/24 22:11:57;;;;;;;10.70;6.35;;;;;;;;;;10320678;28;20027;-60
2024/01/24 22:16:57;;;;;;;10.48;7.10;;;;;;;;;;10327073;28;20988;-60
2024/01/24 22:21:58;;;;;;;11.30;6.88;;;;;;;;;;10299030;28;20026;-60
2024/01/24 22:26:59;;;;;;;9.18;6.50;;;;;;;;;;10286474;28;20042;-60
2024/01/24 22:32:00;;;;;;;12.20;7.00;;;;;;;;;;10317347;28;20034;-60
2024/01/24 22:37:01;;;;;;;10.23;6.65;;;;;;;;;;10325251;28;20056;-60
2024/01/24 22:42:01;;;;;;;10.73;7.30;;;;;;;;;;10301951;28;20042;-60
2024/01/24 22:47:02;;;;;;;10.98;7.68;;;;;;;;;;10324378;28;20041;-60
2024/01/24 22:52:03;;;;;;;8.00;6.50;;;;;;;;;;10321678;28;20034;-60
2024/01/24 22:57:04;;;;;;;10.50;7.45;;;;;;;;;;10349106;28;20558;-60
2024/01/24 23:02:05;;;;;;;14.32;7.40;;;;;;;;;;10294032;28;20073;-59
2024/01/24 23:07:05;;;;;;;13.10;7.22;;;;;;;;;;10323123;28;20129;-61
2024/01/24 23:12:06;;;;;;;9.80;7.05;;;;;;;;;;10278961;28;20034;-60
2024/01/24 23:17:07;;;;;;;9.35;6.88;;;;;;;;;;10217502;28;20084;-59
2024/01/24 23:22:08;;;;;;;10.68;6.95;;;;;;;;;;10269997;28;20081;-60
2024/01/24 23:27:08;;;;;;;11.25;7.13;;;;;;;;;;10336251;28;20103;-60
2024/01/24 23:32:09;;;;;;;10.25;6.93;;;;;;;;;;10345356;28;20033;-60
2024/01/24 23:37:10;;;;;;;9.93;6.70;;;;;;;;;;10327994;28;20046;-60
2024/01/24 23:42:11;;;;;;;9.65;7.05;;;;;;;;;;10328079;28;20034;-60
2024/01/24 23:47:11;;;;;;;9.13;6.65;;;;;;;;;;10330114;28;20088;-60
2024/01/24 23:52:12;;;;;;;11.90;7.40;;;;;;;;;;10316084;28;20030;-59
2024/01/24 23:57:12;;;;;;;10.73;7.00;;;;;;;;;;10316503;28;20066;-59
